sensor_id;sensor_type;location;lat;lon;timestamp;P1;durP1;ratioP1;P2;durP2;ratioP2
34064;SDS011;20339;49.754;20.158;2022-12-05T00:00:31;82.20;;;27.10;;
34064;SDS011;20339;49.754;20.158;2022-12-05T00:03:09;49.10;;;24.90;;
34064;SDS011;20339;49.754;20.158;2022-12-05T00:05:39;52.20;;;25.20;;
34064;SDS011;20339;49.754;20.158;2022-12-05T00:08:08;27.80;;;17.50;;
34064;SDS011;20339;49.754;20.158;2022-12-05T00:10:37;41.40;;;24.90;;
34064;SDS011;20339;49.754;20.158;2022-12-05T00:13:06;46.90;;;26.10;;
34064;SDS011;20339;49.754;20.158;2022-12-05T00:15:36;40.50;;;24.20;;
34064;SDS011;20339;49.754;20.158;2022-12-05T00:18:04;42.70;;;26.10;;
34064;SDS011;20339;49.754;20.158;2022-12-05T00:20:33;42.00;;;25.00;;
34064;SDS011;20339;49.754;20.158;2022-12-05T00:23:02;42.10;;;25.70;;
34064;SDS011;20339;49.754;20.158;2022-12-05T00:25:31;37.20;;;23.90;;
34064;SDS011;20339;49.754;20.158;2022-12-05T00:28:02;39.60;;;25.90;;
34064;SDS011;20339;49.754;20.158;2022-12-05T00:30:33;40.40;;;25.60;;
34064;SDS011;20339;49.754;20.158;2022-12-05T00:33:05;40.50;;;26.80;;
34064;SDS011;20339;49.754;20.158;2022-12-05T00:35:34;35.90;;;24.30;;
34064;SDS011;20339;49.754;20.158;2022-12-05T00:38:03;36.30;;;24.50;;
34064;SDS011;20339;49.754;20.158;2022-12-05T00:40:31;41.20;;;26.70;;
34064;SDS011;20339;49.754;20.158;2022-12-05T00:43:04;38.80;;;25.50;;
34064;SDS011;20339;49.754;20.158;2022-12-05T00:45:33;36.20;;;24.20;;
34064;SDS011;20339;49.754;20.158;2022-12-05T00:48:01;38.40;;;26.10;;
34064;SDS011;20339;49.754;20.158;2022-12-05T00:50:30;41.10;;;25.80;;
34064;SDS011;20339;49.754;20.158;2022-12-05T00:52:59;39.10;;;25.50;;
34064;SDS011;20339;49.754;20.158;2022-12-05T00:55:29;38.80;;;25.80;;
34064;SDS011;20339;49.754;20.158;2022-12-05T00:57:59;40.60;;;26.50;;
34064;SDS011;20339;49.754;20.158;2022-12-05T01:00:27;38.70;;;25.60;;
34064;SDS011;20339;49.754;20.158;2022-12-05T01:02:56;39.70;;;26.40;;
34064;SDS011;20339;49.754;20.158;2022-12-05T01:05:25;40.40;;;27.00;;
34064;SDS011;20339;49.754;20.158;2022-12-05T01:07:54;36.50;;;25.30;;
34064;SDS011;20339;49.754;20.158;2022-12-05T01:10:22;37.80;;;25.60;;
34064;SDS011;20339;49.754;20.158;2022-12-05T01:12:51;40.50;;;26.50;;
34064;SDS011;20339;49.754;20.158;2022-12-05T01:15:24;36.80;;;24.30;;
34064;SDS011;20339;49.754;20.158;2022-12-05T01:17:53;36.30;;;24.30;;
34064;SDS011;20339;49.754;20.158;2022-12-05T01:20:24;36.40;;;24.60;;
34064;SDS011;20339;49.754;20.158;2022-12-05T01:22:52;36.60;;;25.10;;
34064;SDS011;20339;49.754;20.158;2022-12-05T01:25:23;37.10;;;25.20;;
34064;SDS011;20339;49.754;20.158;2022-12-05T01:27:52;34.20;;;23.80;;
34064;SDS011;20339;49.754;20.158;2022-12-05T01:30:24;36.30;;;25.90;;
34064;SDS011;20339;49.754;20.158;2022-12-05T01:32:53;38.80;;;26.00;;
34064;SDS011;20339;49.754;20.158;2022-12-05T01:35:25;36.90;;;25.90;;
34064;SDS011;20339;49.754;20.158;2022-12-05T01:37:54;37.10;;;25.00;;
34064;SDS011;20339;49.754;20.158;2022-12-05T01:40:23;39.80;;;26.10;;
34064;SDS011;20339;49.754;20.158;2022-12-05T01:42:54;38.70;;;25.80;;
34064;SDS011;20339;49.754;20.158;2022-12-05T01:45:25;41.30;;;26.10;;
34064;SDS011;20339;49.754;20.158;2022-12-05T01:48:02;42.60;;;27.50;;
34064;SDS011;20339;49.754;20.158;2022-12-05T01:50:37;37.60;;;26.50;;
34064;SDS011;20339;49.754;20.158;2022-12-05T01:53:06;39.80;;;26.30;;
34064;SDS011;20339;49.754;20.158;2022-12-05T01:55:35;41.50;;;26.30;;
34064;SDS011;20339;49.754;20.158;2022-12-05T01:58:05;46.80;;;29.80;;
34064;SDS011;20339;49.754;20.158;2022-12-05T02:00:36;41.70;;;27.10;;
34064;SDS011;20339;49.754;20.158;2022-12-05T02:03:07;43.00;;;28.30;;
34064;SDS011;20339;49.754;20.158;2022-12-05T02:05:38;43.80;;;28.50;;
34064;SDS011;20339;49.754;20.158;2022-12-05T02:08:09;43.10;;;27.20;;
34064;SDS011;20339;49.754;20.158;2022-12-05T02:10:40;40.10;;;27.40;;
34064;SDS011;20339;49.754;20.158;2022-12-05T02:13:15;38.90;;;26.30;;
34064;SDS011;20339;49.754;20.158;2022-12-05T02:15:59;36.70;;;24.30;;
34064;SDS011;20339;49.754;20.158;2022-12-05T02:18:40;38.20;;;25.70;;
34064;SDS011;20339;49.754;20.158;2022-12-05T02:21:31;37.90;;;25.10;;
34064;SDS011;20339;49.754;20.158;2022-12-05T02:24:24;40.00;;;26.90;;
34064;SDS011;20339;49.754;20.158;2022-12-05T02:27:15;39.80;;;25.70;;
34064;SDS011;20339;49.754;20.158;2022-12-05T02:29:55;70.90;;;28.60;;
34064;SDS011;20339;49.754;20.158;2022-12-05T02:35:29;49.40;;;27.70;;
34064;SDS011;20339;49.754;20.158;2022-12-05T02:38:18;93.50;;;30.20;;
34064;SDS011;20339;49.754;20.158;2022-12-05T02:40:55;91.40;;;29.80;;
34064;SDS011;20339;49.754;20.158;2022-12-05T02:43:33;51.10;;;27.40;;
34064;SDS011;20339;49.754;20.158;2022-12-05T02:46:08;64.20;;;30.70;;
34064;SDS011;20339;49.754;20.158;2022-12-05T02:48:39;53.80;;;29.40;;
34064;SDS011;20339;49.754;20.158;2022-12-05T02:51:12;54.00;;;29.60;;
34064;SDS011;20339;49.754;20.158;2022-12-05T02:53:45;59.00;;;28.60;;
34064;SDS011;20339;49.754;20.158;2022-12-05T02:56:16;60.40;;;30.20;;
34064;SDS011;20339;49.754;20.158;2022-12-05T02:58:47;47.80;;;24.60;;
34064;SDS011;20339;49.754;20.158;2022-12-05T03:01:19;64.20;;;30.90;;
34064;SDS011;20339;49.754;20.158;2022-12-05T03:03:50;54.10;;;28.80;;
34064;SDS011;20339;49.754;20.158;2022-12-05T03:06:20;55.60;;;28.90;;
34064;SDS011;20339;49.754;20.158;2022-12-05T03:08:53;53.50;;;28.20;;
34064;SDS011;20339;49.754;20.158;2022-12-05T03:11:27;52.50;;;30.40;;
34064;SDS011;20339;49.754;20.158;2022-12-05T03:13:59;50.30;;;29.80;;
34064;SDS011;20339;49.754;20.158;2022-12-05T03:16:34;56.70;;;29.50;;
34064;SDS011;20339;49.754;20.158;2022-12-05T03:19:09;58.80;;;30.90;;
34064;SDS011;20339;49.754;20.158;2022-12-05T03:21:44;53.80;;;30.00;;
34064;SDS011;20339;49.754;20.158;2022-12-05T03:24:17;64.10;;;31.30;;
34064;SDS011;20339;49.754;20.158;2022-12-05T03:26:48;56.40;;;31.60;;
34064;SDS011;20339;49.754;20.158;2022-12-05T03:29:24;50.40;;;25.60;;
34064;SDS011;20339;49.754;20.158;2022-12-05T03:32:01;67.30;;;29.20;;
34064;SDS011;20339;49.754;20.158;2022-12-05T03:34:41;49.80;;;27.60;;
34064;SDS011;20339;49.754;20.158;2022-12-05T03:37:18;49.90;;;27.40;;
34064;SDS011;20339;49.754;20.158;2022-12-05T03:39:57;47.70;;;29.10;;
34064;SDS011;20339;49.754;20.158;2022-12-05T03:42:33;49.70;;;29.90;;
34064;SDS011;20339;49.754;20.158;2022-12-05T03:45:10;55.00;;;28.90;;
34064;SDS011;20339;49.754;20.158;2022-12-05T03:47:44;60.60;;;26.60;;
34064;SDS011;20339;49.754;20.158;2022-12-05T03:50:18;47.60;;;28.30;;
34064;SDS011;20339;49.754;20.158;2022-12-05T03:52:51;78.80;;;29.00;;
34064;SDS011;20339;49.754;20.158;2022-12-05T03:55:25;42.50;;;26.70;;
34064;SDS011;20339;49.754;20.158;2022-12-05T03:57:58;43.10;;;27.60;;
34064;SDS011;20339;49.754;20.158;2022-12-05T04:00:31;40.10;;;25.20;;
34064;SDS011;20339;49.754;20.158;2022-12-05T04:03:04;44.10;;;25.10;;
34064;SDS011;20339;49.754;20.158;2022-12-05T04:05:38;43.70;;;24.40;;
34064;SDS011;20339;49.754;20.158;2022-12-05T04:08:11;53.80;;;29.70;;
34064;SDS011;20339;49.754;20.158;2022-12-05T04:10:48;76.30;;;41.40;;
34064;SDS011;20339;49.754;20.158;2022-12-05T04:13:20;49.80;;;28.10;;
34064;SDS011;20339;49.754;20.158;2022-12-05T04:15:54;48.80;;;29.30;;
34064;SDS011;20339;49.754;20.158;2022-12-05T04:18:46;48.10;;;29.90;;
34064;SDS011;20339;49.754;20.158;2022-12-05T04:21:22;47.20;;;30.00;;
34064;SDS011;20339;49.754;20.158;2022-12-05T04:24:05;52.90;;;33.40;;
34064;SDS011;20339;49.754;20.158;2022-12-05T04:26:58;45.20;;;28.70;;
34064;SDS011;20339;49.754;20.158;2022-12-05T04:29:38;44.30;;;28.80;;
34064;SDS011;20339;49.754;20.158;2022-12-05T04:32:15;45.40;;;29.10;;
34064;SDS011;20339;49.754;20.158;2022-12-05T04:34:47;44.90;;;29.90;;
34064;SDS011;20339;49.754;20.158;2022-12-05T04:37:23;48.30;;;29.50;;
34064;SDS011;20339;49.754;20.158;2022-12-05T04:39:57;49.40;;;31.10;;
34064;SDS011;20339;49.754;20.158;2022-12-05T04:42:30;43.10;;;27.70;;
34064;SDS011;20339;49.754;20.158;2022-12-05T04:45:03;45.80;;;29.50;;
34064;SDS011;20339;49.754;20.158;2022-12-05T04:47:38;44.40;;;28.30;;
34064;SDS011;20339;49.754;20.158;2022-12-05T04:50:10;43.20;;;29.30;;
34064;SDS011;20339;49.754;20.158;2022-12-05T04:52:41;41.30;;;27.10;;
34064;SDS011;20339;49.754;20.158;2022-12-05T04:55:14;47.10;;;28.80;;
34064;SDS011;20339;49.754;20.158;2022-12-05T04:57:54;49.90;;;30.90;;
34064;SDS011;20339;49.754;20.158;2022-12-05T05:00:30;46.90;;;28.70;;
34064;SDS011;20339;49.754;20.158;2022-12-05T05:03:05;40.60;;;25.80;;
34064;SDS011;20339;49.754;20.158;2022-12-05T05:05:41;43.60;;;28.40;;
34064;SDS011;20339;49.754;20.158;2022-12-05T05:08:18;43.80;;;28.30;;
34064;SDS011;20339;49.754;20.158;2022-12-05T05:10:49;39.20;;;26.10;;
34064;SDS011;20339;49.754;20.158;2022-12-05T05:13:27;41.00;;;25.50;;
34064;SDS011;20339;49.754;20.158;2022-12-05T05:15:56;42.60;;;26.50;;
34064;SDS011;20339;49.754;20.158;2022-12-05T05:18:25;39.40;;;25.20;;
34064;SDS011;20339;49.754;20.158;2022-12-05T05:20:56;39.00;;;24.40;;
34064;SDS011;20339;49.754;20.158;2022-12-05T05:23:25;37.80;;;24.90;;
34064;SDS011;20339;49.754;20.158;2022-12-05T05:25:54;38.30;;;25.60;;
34064;SDS011;20339;49.754;20.158;2022-12-05T05:28:23;40.20;;;25.40;;
34064;SDS011;20339;49.754;20.158;2022-12-05T05:30:54;37.70;;;24.60;;
34064;SDS011;20339;49.754;20.158;2022-12-05T05:33:27;39.90;;;25.20;;
34064;SDS011;20339;49.754;20.158;2022-12-05T05:35:57;44.20;;;25.50;;
34064;SDS011;20339;49.754;20.158;2022-12-05T05:38:30;39.70;;;26.20;;
34064;SDS011;20339;49.754;20.158;2022-12-05T05:41:01;38.50;;;25.10;;
34064;SDS011;20339;49.754;20.158;2022-12-05T05:43:30;37.80;;;23.60;;
34064;SDS011;20339;49.754;20.158;2022-12-05T05:46:01;39.60;;;26.40;;
34064;SDS011;20339;49.754;20.158;2022-12-05T05:48:33;39.80;;;24.80;;
34064;SDS011;20339;49.754;20.158;2022-12-05T05:51:03;37.90;;;25.20;;
34064;SDS011;20339;49.754;20.158;2022-12-05T05:53:33;34.80;;;22.90;;
34064;SDS011;20339;49.754;20.158;2022-12-05T05:56:02;30.70;;;20.80;;
34064;SDS011;20339;49.754;20.158;2022-12-05T05:58:33;35.60;;;22.30;;
34064;SDS011;20339;49.754;20.158;2022-12-05T06:01:03;51.80;;;34.50;;
34064;SDS011;20339;49.754;20.158;2022-12-05T06:03:35;40.20;;;27.50;;
34064;SDS011;20339;49.754;20.158;2022-12-05T06:06:06;29.70;;;19.90;;
34064;SDS011;20339;49.754;20.158;2022-12-05T06:08:38;25.10;;;17.40;;
34064;SDS011;20339;49.754;20.158;2022-12-05T06:11:09;34.40;;;22.60;;
34064;SDS011;20339;49.754;20.158;2022-12-05T06:13:39;35.80;;;22.50;;
34064;SDS011;20339;49.754;20.158;2022-12-05T06:16:09;36.40;;;22.90;;
34064;SDS011;20339;49.754;20.158;2022-12-05T06:18:38;32.20;;;22.30;;
34064;SDS011;20339;49.754;20.158;2022-12-05T06:21:07;26.90;;;18.40;;
34064;SDS011;20339;49.754;20.158;2022-12-05T06:23:36;30.80;;;21.70;;
34064;SDS011;20339;49.754;20.158;2022-12-05T06:26:08;26.00;;;17.70;;
34064;SDS011;20339;49.754;20.158;2022-12-05T06:28:38;26.30;;;16.80;;
34064;SDS011;20339;49.754;20.158;2022-12-05T06:31:07;23.60;;;17.70;;
34064;SDS011;20339;49.754;20.158;2022-12-05T06:33:38;27.00;;;18.10;;
34064;SDS011;20339;49.754;20.158;2022-12-05T06:36:07;25.30;;;18.30;;
34064;SDS011;20339;49.754;20.158;2022-12-05T06:38:37;28.20;;;18.90;;
34064;SDS011;20339;49.754;20.158;2022-12-05T06:41:07;27.00;;;19.60;;
34064;SDS011;20339;49.754;20.158;2022-12-05T06:46:07;26.50;;;18.40;;
34064;SDS011;20339;49.754;20.158;2022-12-05T06:48:37;26.40;;;18.90;;
34064;SDS011;20339;49.754;20.158;2022-12-05T06:51:07;32.10;;;22.00;;
34064;SDS011;20339;49.754;20.158;2022-12-05T06:53:37;38.70;;;25.30;;
34064;SDS011;20339;49.754;20.158;2022-12-05T06:56:09;32.30;;;23.90;;
34064;SDS011;20339;49.754;20.158;2022-12-05T06:58:39;34.20;;;25.00;;
34064;SDS011;20339;49.754;20.158;2022-12-05T07:01:10;37.40;;;28.20;;
34064;SDS011;20339;49.754;20.158;2022-12-05T07:03:58;41.60;;;30.90;;
34064;SDS011;20339;49.754;20.158;2022-12-05T07:06:27;35.40;;;27.00;;
34064;SDS011;20339;49.754;20.158;2022-12-05T07:08:56;42.50;;;31.50;;
34064;SDS011;20339;49.754;20.158;2022-12-05T07:11:25;45.90;;;32.60;;
34064;SDS011;20339;49.754;20.158;2022-12-05T07:13:53;38.00;;;29.30;;
34064;SDS011;20339;49.754;20.158;2022-12-05T07:16:22;34.10;;;26.10;;
34064;SDS011;20339;49.754;20.158;2022-12-05T07:18:51;27.00;;;21.90;;
34064;SDS011;20339;49.754;20.158;2022-12-05T07:21:20;19.90;;;16.30;;
34064;SDS011;20339;49.754;20.158;2022-12-05T07:23:49;17.00;;;14.30;;
34064;SDS011;20339;49.754;20.158;2022-12-05T07:26:20;15.00;;;12.10;;
34064;SDS011;20339;49.754;20.158;2022-12-05T07:28:50;21.70;;;16.80;;
34064;SDS011;20339;49.754;20.158;2022-12-05T07:31:22;32.40;;;26.50;;
34064;SDS011;20339;49.754;20.158;2022-12-05T07:33:54;30.30;;;24.70;;
34064;SDS011;20339;49.754;20.158;2022-12-05T07:36:23;22.30;;;19.90;;
34064;SDS011;20339;49.754;20.158;2022-12-05T07:38:54;22.10;;;18.10;;
34064;SDS011;20339;49.754;20.158;2022-12-05T07:41:26;19.10;;;15.00;;
34064;SDS011;20339;49.754;20.158;2022-12-05T07:43:57;16.10;;;12.60;;
34064;SDS011;20339;49.754;20.158;2022-12-05T07:46:27;16.40;;;12.90;;
34064;SDS011;20339;49.754;20.158;2022-12-05T07:48:56;13.10;;;10.00;;
34064;SDS011;20339;49.754;20.158;2022-12-05T07:51:24;22.50;;;12.50;;
34064;SDS011;20339;49.754;20.158;2022-12-05T07:53:53;17.10;;;12.50;;
34064;SDS011;20339;49.754;20.158;2022-12-05T07:56:21;17.40;;;13.40;;
34064;SDS011;20339;49.754;20.158;2022-12-05T07:58:50;29.20;;;16.20;;
34064;SDS011;20339;49.754;20.158;2022-12-05T08:01:19;27.60;;;17.40;;
34064;SDS011;20339;49.754;20.158;2022-12-05T08:03:50;24.70;;;16.00;;
34064;SDS011;20339;49.754;20.158;2022-12-05T08:06:22;21.40;;;15.00;;
34064;SDS011;20339;49.754;20.158;2022-12-05T08:08:52;18.00;;;14.80;;
34064;SDS011;20339;49.754;20.158;2022-12-05T08:11:22;17.40;;;14.80;;
34064;SDS011;20339;49.754;20.158;2022-12-05T08:13:52;16.10;;;12.40;;
34064;SDS011;20339;49.754;20.158;2022-12-05T08:16:22;17.50;;;14.20;;
34064;SDS011;20339;49.754;20.158;2022-12-05T08:18:53;16.70;;;12.80;;
34064;SDS011;20339;49.754;20.158;2022-12-05T08:21:23;16.90;;;12.90;;
34064;SDS011;20339;49.754;20.158;2022-12-05T08:23:52;16.30;;;12.40;;
34064;SDS011;20339;49.754;20.158;2022-12-05T08:26:22;16.10;;;12.10;;
34064;SDS011;20339;49.754;20.158;2022-12-05T08:28:54;17.20;;;13.60;;
34064;SDS011;20339;49.754;20.158;2022-12-05T08:31:27;17.10;;;12.50;;
34064;SDS011;20339;49.754;20.158;2022-12-05T08:33:58;14.60;;;11.80;;
34064;SDS011;20339;49.754;20.158;2022-12-05T08:36:28;16.40;;;11.70;;
34064;SDS011;20339;49.754;20.158;2022-12-05T08:38:57;14.80;;;11.00;;
34064;SDS011;20339;49.754;20.158;2022-12-05T08:41:28;16.50;;;11.60;;
34064;SDS011;20339;49.754;20.158;2022-12-05T08:43:57;15.30;;;11.10;;
34064;SDS011;20339;49.754;20.158;2022-12-05T08:46:28;16.50;;;11.20;;
34064;SDS011;20339;49.754;20.158;2022-12-05T08:48:58;14.40;;;11.30;;
34064;SDS011;20339;49.754;20.158;2022-12-05T08:51:27;16.20;;;12.10;;
34064;SDS011;20339;49.754;20.158;2022-12-05T08:53:59;15.90;;;12.40;;
34064;SDS011;20339;49.754;20.158;2022-12-05T08:56:30;15.70;;;11.90;;
34064;SDS011;20339;49.754;20.158;2022-12-05T08:58:59;16.30;;;12.00;;
34064;SDS011;20339;49.754;20.158;2022-12-05T09:01:28;13.60;;;10.20;;
34064;SDS011;20339;49.754;20.158;2022-12-05T09:03:57;13.60;;;9.80;;
34064;SDS011;20339;49.754;20.158;2022-12-05T09:06:30;12.50;;;9.70;;
34064;SDS011;20339;49.754;20.158;2022-12-05T09:09:01;12.40;;;8.80;;
34064;SDS011;20339;49.754;20.158;2022-12-05T09:11:33;14.70;;;10.60;;
34064;SDS011;20339;49.754;20.158;2022-12-05T09:14:06;14.80;;;11.70;;
34064;SDS011;20339;49.754;20.158;2022-12-05T09:16:37;13.20;;;10.20;;
34064;SDS011;20339;49.754;20.158;2022-12-05T09:19:11;15.10;;;11.40;;
34064;SDS011;20339;49.754;20.158;2022-12-05T09:21:44;11.70;;;9.20;;
34064;SDS011;20339;49.754;20.158;2022-12-05T09:24:18;12.90;;;9.40;;
34064;SDS011;20339;49.754;20.158;2022-12-05T09:29:18;15.20;;;10.80;;
34064;SDS011;20339;49.754;20.158;2022-12-05T09:31:49;16.00;;;11.50;;
34064;SDS011;20339;49.754;20.158;2022-12-05T09:34:24;13.40;;;10.30;;
34064;SDS011;20339;49.754;20.158;2022-12-05T09:36:57;14.50;;;10.80;;
34064;SDS011;20339;49.754;20.158;2022-12-05T09:39:27;13.30;;;10.60;;
34064;SDS011;20339;49.754;20.158;2022-12-05T09:45:13;14.30;;;10.30;;
34064;SDS011;20339;49.754;20.158;2022-12-05T09:47:52;14.60;;;10.20;;
34064;SDS011;20339;49.754;20.158;2022-12-05T09:50:25;15.80;;;11.20;;
34064;SDS011;20339;49.754;20.158;2022-12-05T09:53:01;13.90;;;10.20;;
34064;SDS011;20339;49.754;20.158;2022-12-05T09:55:37;14.50;;;10.90;;
34064;SDS011;20339;49.754;20.158;2022-12-05T09:58:24;13.80;;;9.90;;
34064;SDS011;20339;49.754;20.158;2022-12-05T10:01:02;13.70;;;11.30;;
34064;SDS011;20339;49.754;20.158;2022-12-05T10:03:41;16.90;;;11.80;;
34064;SDS011;20339;49.754;20.158;2022-12-05T10:06:18;15.90;;;12.20;;
34064;SDS011;20339;49.754;20.158;2022-12-05T10:08:59;15.80;;;11.00;;
34064;SDS011;20339;49.754;20.158;2022-12-05T10:11:51;15.10;;;10.70;;
34064;SDS011;20339;49.754;20.158;2022-12-05T10:14:35;14.20;;;10.50;;
34064;SDS011;20339;49.754;20.158;2022-12-05T10:17:18;13.10;;;9.60;;
34064;SDS011;20339;49.754;20.158;2022-12-05T10:19:50;13.10;;;9.00;;
34064;SDS011;20339;49.754;20.158;2022-12-05T10:22:27;13.20;;;9.70;;
34064;SDS011;20339;49.754;20.158;2022-12-05T10:25:01;12.50;;;8.70;;
34064;SDS011;20339;49.754;20.158;2022-12-05T10:27:35;13.90;;;9.60;;
34064;SDS011;20339;49.754;20.158;2022-12-05T10:30:11;14.40;;;9.90;;
34064;SDS011;20339;49.754;20.158;2022-12-05T10:32:44;15.10;;;10.50;;
34064;SDS011;20339;49.754;20.158;2022-12-05T10:35:18;15.40;;;10.70;;
34064;SDS011;20339;49.754;20.158;2022-12-05T10:37:49;15.10;;;11.10;;
34064;SDS011;20339;49.754;20.158;2022-12-05T10:40:25;13.30;;;9.60;;
34064;SDS011;20339;49.754;20.158;2022-12-05T10:43:00;15.60;;;10.60;;
34064;SDS011;20339;49.754;20.158;2022-12-05T10:45:34;15.70;;;9.50;;
34064;SDS011;20339;49.754;20.158;2022-12-05T10:48:09;13.20;;;9.30;;
34064;SDS011;20339;49.754;20.158;2022-12-05T10:50:41;11.60;;;7.70;;
34064;SDS011;20339;49.754;20.158;2022-12-05T10:53:18;12.80;;;9.50;;
34064;SDS011;20339;49.754;20.158;2022-12-05T10:55:53;13.00;;;9.10;;
34064;SDS011;20339;49.754;20.158;2022-12-05T10:58:23;11.80;;;8.50;;
34064;SDS011;20339;49.754;20.158;2022-12-05T11:00:54;12.50;;;8.70;;
34064;SDS011;20339;49.754;20.158;2022-12-05T11:03:27;11.90;;;9.10;;
34064;SDS011;20339;49.754;20.158;2022-12-05T11:05:58;10.90;;;8.40;;
34064;SDS011;20339;49.754;20.158;2022-12-05T11:08:31;13.90;;;9.50;;
34064;SDS011;20339;49.754;20.158;2022-12-05T11:11:02;12.80;;;9.50;;
34064;SDS011;20339;49.754;20.158;2022-12-05T11:13:32;12.80;;;10.30;;
34064;SDS011;20339;49.754;20.158;2022-12-05T11:16:03;12.40;;;8.70;;
34064;SDS011;20339;49.754;20.158;2022-12-05T11:18:49;11.40;;;8.70;;
34064;SDS011;20339;49.754;20.158;2022-12-05T11:21:19;11.00;;;8.80;;
34064;SDS011;20339;49.754;20.158;2022-12-05T11:23:50;14.00;;;9.70;;
34064;SDS011;20339;49.754;20.158;2022-12-05T11:26:32;12.10;;;8.20;;
34064;SDS011;20339;49.754;20.158;2022-12-05T11:29:04;12.90;;;9.10;;
34064;SDS011;20339;49.754;20.158;2022-12-05T11:31:57;10.70;;;8.00;;
34064;SDS011;20339;49.754;20.158;2022-12-05T11:34:28;10.00;;;6.80;;
34064;SDS011;20339;49.754;20.158;2022-12-05T11:37:03;8.80;;;6.60;;
34064;SDS011;20339;49.754;20.158;2022-12-05T11:39:38;8.70;;;6.30;;
34064;SDS011;20339;49.754;20.158;2022-12-05T11:45:09;9.30;;;7.10;;
34064;SDS011;20339;49.754;20.158;2022-12-05T11:51:02;10.80;;;8.30;;
34064;SDS011;20339;49.754;20.158;2022-12-05T11:53:47;11.80;;;7.90;;
34064;SDS011;20339;49.754;20.158;2022-12-05T11:56:40;10.80;;;7.70;;
34064;SDS011;20339;49.754;20.158;2022-12-05T12:02:19;10.60;;;7.40;;
34064;SDS011;20339;49.754;20.158;2022-12-05T12:04:59;10.10;;;7.20;;
34064;SDS011;20339;49.754;20.158;2022-12-05T12:07:47;10.90;;;8.20;;
34064;SDS011;20339;49.754;20.158;2022-12-05T12:10:32;10.50;;;7.70;;
34064;SDS011;20339;49.754;20.158;2022-12-05T12:13:13;10.50;;;7.70;;
34064;SDS011;20339;49.754;20.158;2022-12-05T12:15:58;10.00;;;8.10;;
34064;SDS011;20339;49.754;20.158;2022-12-05T12:18:44;10.90;;;8.30;;
34064;SDS011;20339;49.754;20.158;2022-12-05T12:21:30;11.60;;;8.40;;
34064;SDS011;20339;49.754;20.158;2022-12-05T12:24:12;9.90;;;7.70;;
34064;SDS011;20339;49.754;20.158;2022-12-05T12:26:51;11.10;;;8.20;;
34064;SDS011;20339;49.754;20.158;2022-12-05T12:29:32;8.90;;;7.10;;
34064;SDS011;20339;49.754;20.158;2022-12-05T12:32:17;9.80;;;7.90;;
34064;SDS011;20339;49.754;20.158;2022-12-05T12:35:06;11.00;;;7.60;;
34064;SDS011;20339;49.754;20.158;2022-12-05T12:37:52;10.00;;;7.20;;
34064;SDS011;20339;49.754;20.158;2022-12-05T12:40:49;10.20;;;7.40;;
34064;SDS011;20339;49.754;20.158;2022-12-05T12:43:34;10.60;;;7.90;;
34064;SDS011;20339;49.754;20.158;2022-12-05T12:46:14;10.10;;;8.20;;
34064;SDS011;20339;49.754;20.158;2022-12-05T12:49:05;11.30;;;8.00;;
34064;SDS011;20339;49.754;20.158;2022-12-05T12:51:49;9.40;;;7.00;;
34064;SDS011;20339;49.754;20.158;2022-12-05T12:54:26;10.30;;;7.50;;
34064;SDS011;20339;49.754;20.158;2022-12-05T12:57:24;11.40;;;8.80;;
34064;SDS011;20339;49.754;20.158;2022-12-05T13:00:02;26.70;;;20.10;;
34064;SDS011;20339;49.754;20.158;2022-12-05T13:02:42;22.50;;;17.00;;
34064;SDS011;20339;49.754;20.158;2022-12-05T13:05:22;30.60;;;23.40;;
34064;SDS011;20339;49.754;20.158;2022-12-05T13:08:01;27.70;;;20.70;;
34064;SDS011;20339;49.754;20.158;2022-12-05T13:10:38;26.80;;;19.10;;
34064;SDS011;20339;49.754;20.158;2022-12-05T13:13:11;26.30;;;17.80;;
34064;SDS011;20339;49.754;20.158;2022-12-05T13:15:46;24.80;;;19.10;;
34064;SDS011;20339;49.754;20.158;2022-12-05T13:18:21;21.40;;;16.40;;
34064;SDS011;20339;49.754;20.158;2022-12-05T13:20:51;21.60;;;14.10;;
34064;SDS011;20339;49.754;20.158;2022-12-05T13:23:23;17.10;;;13.10;;
34064;SDS011;20339;49.754;20.158;2022-12-05T13:25:57;18.90;;;14.10;;
34064;SDS011;20339;49.754;20.158;2022-12-05T13:28:31;17.20;;;12.80;;
34064;SDS011;20339;49.754;20.158;2022-12-05T13:31:10;18.60;;;15.20;;
34064;SDS011;20339;49.754;20.158;2022-12-05T13:33:43;22.30;;;15.60;;
34064;SDS011;20339;49.754;20.158;2022-12-05T13:36:20;22.90;;;15.70;;
34064;SDS011;20339;49.754;20.158;2022-12-05T13:42:06;17.30;;;13.10;;
34064;SDS011;20339;49.754;20.158;2022-12-05T13:44:48;18.30;;;14.30;;
34064;SDS011;20339;49.754;20.158;2022-12-05T13:47:23;19.50;;;14.90;;
34064;SDS011;20339;49.754;20.158;2022-12-05T13:50:01;20.80;;;16.10;;
34064;SDS011;20339;49.754;20.158;2022-12-05T13:52:39;20.90;;;15.30;;
34064;SDS011;20339;49.754;20.158;2022-12-05T13:55:18;16.10;;;11.90;;
34064;SDS011;20339;49.754;20.158;2022-12-05T13:57:54;19.60;;;14.30;;
34064;SDS011;20339;49.754;20.158;2022-12-05T14:00:28;16.00;;;12.10;;
34064;SDS011;20339;49.754;20.158;2022-12-05T14:06:11;14.50;;;9.30;;
34064;SDS011;20339;49.754;20.158;2022-12-05T14:09:27;15.40;;;10.10;;
34064;SDS011;20339;49.754;20.158;2022-12-05T14:14:59;14.00;;;10.80;;
34064;SDS011;20339;49.754;20.158;2022-12-05T14:17:40;19.00;;;13.40;;
34064;SDS011;20339;49.754;20.158;2022-12-05T14:20:17;12.90;;;9.50;;
34064;SDS011;20339;49.754;20.158;2022-12-05T14:23:17;13.70;;;9.40;;
34064;SDS011;20339;49.754;20.158;2022-12-05T14:26:06;12.60;;;8.60;;
34064;SDS011;20339;49.754;20.158;2022-12-05T14:31:41;12.90;;;9.80;;
34064;SDS011;20339;49.754;20.158;2022-12-05T14:34:27;10.20;;;7.80;;
34064;SDS011;20339;49.754;20.158;2022-12-05T14:36:59;11.10;;;8.80;;
34064;SDS011;20339;49.754;20.158;2022-12-05T14:39:45;13.70;;;10.20;;
34064;SDS011;20339;49.754;20.158;2022-12-05T14:42:22;14.60;;;10.80;;
34064;SDS011;20339;49.754;20.158;2022-12-05T14:45:20;22.40;;;17.20;;
34064;SDS011;20339;49.754;20.158;2022-12-05T14:47:53;21.50;;;16.20;;
34064;SDS011;20339;49.754;20.158;2022-12-05T14:50:36;17.70;;;12.10;;
34064;SDS011;20339;49.754;20.158;2022-12-05T14:53:17;12.70;;;9.70;;
34064;SDS011;20339;49.754;20.158;2022-12-05T14:55:53;13.80;;;10.30;;
34064;SDS011;20339;49.754;20.158;2022-12-05T14:58:30;12.60;;;8.30;;
34064;SDS011;20339;49.754;20.158;2022-12-05T15:01:05;10.00;;;7.70;;
34064;SDS011;20339;49.754;20.158;2022-12-05T15:03:41;16.40;;;11.10;;
34064;SDS011;20339;49.754;20.158;2022-12-05T15:06:21;15.50;;;11.00;;
34064;SDS011;20339;49.754;20.158;2022-12-05T15:08:56;13.20;;;10.00;;
34064;SDS011;20339;49.754;20.158;2022-12-05T15:11:28;24.60;;;19.30;;
34064;SDS011;20339;49.754;20.158;2022-12-05T15:14:02;21.50;;;15.90;;
34064;SDS011;20339;49.754;20.158;2022-12-05T15:16:43;11.50;;;7.40;;
34064;SDS011;20339;49.754;20.158;2022-12-05T15:19:17;19.10;;;12.60;;
34064;SDS011;20339;49.754;20.158;2022-12-05T15:21:53;12.30;;;9.00;;
34064;SDS011;20339;49.754;20.158;2022-12-05T15:24:25;15.10;;;10.30;;